Time;durP1;ratioP1;P1;durP2;ratioP2;P2;SDS_P1;SDS_P2;PMS_P1;PMS_P2;Temp;Humidity;BMP_temperature;BMP_pressure;BME280_temperature;BME280_humidity;BME280_pressure;Samples;Min_cycle;Max_cycle;Signal;HPM_P1;HPM_P2
2023/07/07 00:00:52;;;;;;;5.25;3.15;;;;;;;;;;5050658;28;20028;-78
2023/07/07 00:03:17;;;;;;;5.43;3.42;;;;;;;;;;5046839;28;20408;-81
2023/07/07 00:05:43;;;;;;;6.50;3.42;;;;;;;;;;5050364;28;20127;-79
2023/07/07 00:08:11;;;;;;;8.32;3.80;;;;;;;;;;5042066;28;20098;-79
2023/07/07 00:10:37;;;;;;;5.60;3.42;;;;;;;;;;5039339;28;20682;-82
2023/07/07 00:13:06;;;;;;;6.07;3.72;;;;;;;;;;5045893;28;20044;-78
2023/07/07 00:15:33;;;;;;;6.20;3.83;;;;;;;;;;5045013;28;21057;-80
2023/07/07 00:17:58;;;;;;;6.45;3.70;;;;;;;;;;5038407;28;20496;-79
2023/07/07 00:20:24;;;;;;;7.28;3.53;;;;;;;;;;5039257;28;20064;-78
2023/07/07 00:22:49;;;;;;;7.60;4.05;;;;;;;;;;5051840;28;20589;-79
2023/07/07 00:25:15;;;;;;;7.50;3.60;;;;;;;;;;5056970;28;20041;-78
2023/07/07 00:27:40;;;;;;;6.05;3.50;;;;;;;;;;5037153;28;20037;-79
2023/07/07 00:30:06;;;;;;;6.75;3.53;;;;;;;;;;5038732;28;20036;-79
2023/07/07 00:32:32;;;;;;;6.03;3.78;;;;;;;;;;5041283;28;22148;-82
2023/07/07 00:34:57;;;;;;;6.22;3.55;;;;;;;;;;5051490;28;20029;-79
2023/07/07 00:37:23;;;;;;;5.18;3.45;;;;;;;;;;5037506;28;20596;-81
2023/07/07 00:39:48;;;;;;;5.32;3.40;;;;;;;;;;5049938;28;20087;-81
2023/07/07 00:42:17;;;;;;;7.72;3.55;;;;;;;;;;5050777;28;20043;-80
2023/07/07 00:45:10;;;;;;;6.00;3.58;;;;;;;;;;5042601;28;20436;-81
2023/07/07 00:47:44;;;;;;;8.77;3.80;;;;;;;;;;5054888;28;20025;-80
2023/07/07 00:50:12;;;;;;;6.00;3.60;;;;;;;;;;5035544;28;20501;-81
2023/07/07 00:52:40;;;;;;;5.20;3.28;;;;;;;;;;5013873;28;20056;-79
2023/07/07 00:55:05;;;;;;;;;;;;;;;;;;5048714;28;21065;-80
2023/07/07 00:57:31;;;;;;;6.15;3.53;;;;;;;;;;5023472;28;19925;-85
2023/07/07 00:59:56;;;;;;;8.13;3.80;;;;;;;;;;5016770;28;20036;-81
2023/07/07 01:02:26;;;;;;;8.55;3.72;;;;;;;;;;5027777;28;20040;-81
2023/07/07 01:04:58;;;;;;;6.88;4.07;;;;;;;;;;5033813;28;20517;-80
2023/07/07 01:07:30;;;;;;;7.43;3.70;;;;;;;;;;5028406;28;20037;-80
2023/07/07 01:09:55;;;;;;;6.32;3.83;;;;;;;;;;5035824;28;20499;-82
2023/07/07 01:12:21;;;;;;;7.22;4.07;;;;;;;;;;5034083;28;20041;-79
2023/07/07 01:14:48;;;;;;;7.70;3.60;;;;;;;;;;5021298;28;20463;-79
2023/07/07 01:17:49;;;;;;;7.10;3.55;;;;;;;;;;5036497;28;20631;-81
2023/07/07 01:20:21;;;;;;;7.15;4.05;;;;;;;;;;5033559;28;20042;-80
2023/07/07 01:23:11;;;;;;;6.97;3.75;;;;;;;;;;5018662;28;20033;-81
2023/07/07 01:25:58;;;;;;;6.22;3.80;;;;;;;;;;5031716;28;20041;-82
2023/07/07 01:28:38;;;;;;;5.80;3.95;;;;;;;;;;5051280;28;20041;-79
2023/07/07 01:31:14;;;;;;;6.35;3.85;;;;;;;;;;5034817;28;20048;-79
2023/07/07 01:33:40;;;;;;;6.85;4.05;;;;;;;;;;5016323;28;20612;-78
2023/07/07 01:36:05;;;;;;;6.97;4.22;;;;;;;;;;5022418;28;20509;-79
2023/07/07 01:38:37;;;;;;;6.25;4.10;;;;;;;;;;5038554;28;20052;-79
2023/07/07 01:41:07;;;;;;;8.38;3.85;;;;;;;;;;5019883;28;20049;-79
2023/07/07 01:44:12;;;;;;;5.97;3.70;;;;;;;;;;5034509;28;20509;-79
2023/07/07 01:46:47;;;;;;;7.43;3.97;;;;;;;;;;5042834;28;20049;-78
2023/07/07 01:49:31;;;;;;;7.10;4.03;;;;;;;;;;5051262;28;20094;-81
2023/07/07 01:51:56;;;;;;;5.97;3.92;;;;;;;;;;5058599;28;20043;-79
2023/07/07 01:54:22;;;;;;;5.97;3.90;;;;;;;;;;5060003;28;20105;-79
2023/07/07 01:56:48;;;;;;;7.38;4.15;;;;;;;;;;5051729;28;20105;-80
2023/07/07 01:59:15;;;;;;;10.00;4.18;;;;;;;;;;5053522;28;20072;-79
2023/07/07 02:01:40;;;;;;;6.57;4.18;;;;;;;;;;5054302;28;20041;-80
2023/07/07 02:04:09;;;;;;;6.90;3.80;;;;;;;;;;5070064;28;20032;-79
2023/07/07 02:06:34;;;;;;;6.80;4.07;;;;;;;;;;5040427;28;20087;-79
2023/07/07 02:08:59;;;;;;;6.03;3.85;;;;;;;;;;5040026;28;20024;-80
2023/07/07 02:11:25;;;;;;;7.28;4.28;;;;;;;;;;5054737;28;20036;-81
2023/07/07 02:13:50;;;;;;;7.53;4.10;;;;;;;;;;5045729;28;20044;-80
2023/07/07 02:16:16;;;;;;;7.75;4.15;;;;;;;;;;5042124;28;20025;-79
2023/07/07 02:18:41;;;;;;;8.13;4.03;;;;;;;;;;5044224;28;20036;-80
2023/07/07 02:21:16;;;;;;;7.95;4.20;;;;;;;;;;5039223;28;20047;-79
2023/07/07 02:23:42;;;;;;;7.57;4.40;;;;;;;;;;5053951;28;20111;-79
2023/07/07 02:26:07;;;;;;;10.30;4.80;;;;;;;;;;5053244;28;20123;-80
2023/07/07 02:28:33;;;;;;;6.80;4.47;;;;;;;;;;5037074;28;20040;-81
2023/07/07 02:30:58;;;;;;;7.43;4.40;;;;;;;;;;5040890;28;20119;-81
2023/07/07 02:33:31;;;;;;;7.38;4.10;;;;;;;;;;5042626;28;20040;-81
2023/07/07 02:36:01;;;;;;;7.28;4.63;;;;;;;;;;5043582;28;20029;-80
2023/07/07 02:38:27;;;;;;;8.48;4.75;;;;;;;;;;5040912;28;20025;-80
2023/07/07 02:40:52;;;;;;;8.68;4.70;;;;;;;;;;5049994;28;20496;-80
2023/07/07 02:43:18;;;;;;;7.90;4.70;;;;;;;;;;5053202;28;20033;-80
2023/07/07 02:45:44;;;;;;;9.00;4.97;;;;;;;;;;5051685;28;20577;-80
2023/07/07 02:48:09;;;;;;;9.00;4.65;;;;;;;;;;5042311;28;20121;-80
2023/07/07 02:50:34;;;;;;;8.80;5.45;;;;;;;;;;5040353;28;20033;-79
2023/07/07 02:53:00;;;;;;;6.93;4.50;;;;;;;;;;5042429;28;20379;-79
2023/07/07 02:55:25;;;;;;;8.07;4.63;;;;;;;;;;5041956;28;20477;-80
2023/07/07 02:57:51;;;;;;;7.88;5.18;;;;;;;;;;5054169;28;20041;-80
2023/07/07 03:00:16;;;;;;;7.93;4.80;;;;;;;;;;5037856;28;20056;-79
2023/07/07 03:02:43;;;;;;;7.70;5.07;;;;;;;;;;5052805;28;20033;-79
2023/07/07 03:05:08;;;;;;;8.27;4.90;;;;;;;;;;5054599;28;20429;-79
2023/07/07 03:07:34;;;;;;;9.63;5.00;;;;;;;;;;5039513;28;20151;-80
2023/07/07 03:10:00;;;;;;;7.60;5.30;;;;;;;;;;5039457;28;20039;-79
2023/07/07 03:12:25;;;;;;;7.60;5.20;;;;;;;;;;5031823;28;20419;-79
2023/07/07 03:14:56;;;;;;;8.93;5.40;;;;;;;;;;5039171;28;20094;-79
2023/07/07 03:17:22;;;;;;;9.30;5.10;;;;;;;;;;5059482;28;20033;-79
2023/07/07 03:19:47;;;;;;;8.02;5.10;;;;;;;;;;5038661;28;20044;-79
2023/07/07 03:22:13;;;;;;;10.85;5.18;;;;;;;;;;5050321;28;20035;-80
2023/07/07 03:24:38;;;;;;;8.63;5.57;;;;;;;;;;5061611;28;20033;-81
2023/07/07 03:27:09;;;;;;;8.60;5.50;;;;;;;;;;5053340;28;20059;-80
2023/07/07 03:29:35;;;;;;;9.70;5.90;;;;;;;;;;5042019;28;20063;-80
2023/07/07 03:32:00;;;;;;;11.93;5.90;;;;;;;;;;5046592;28;20566;-80
2023/07/07 03:34:26;;;;;;;9.68;5.85;;;;;;;;;;5044226;28;20473;-79
2023/07/07 03:36:51;;;;;;;9.15;5.82;;;;;;;;;;5054451;28;20057;-79
2023/07/07 03:39:17;;;;;;;8.27;5.53;;;;;;;;;;5053211;28;20028;-80
2023/07/07 03:41:42;;;;;;;8.73;5.50;;;;;;;;;;5039815;28;20033;-79
2023/07/07 03:44:15;;;;;;;9.98;6.18;;;;;;;;;;5051190;28;20033;-80
2023/07/07 03:46:40;;;;;;;9.40;5.78;;;;;;;;;;5030916;28;20433;-82
2023/07/07 03:49:06;;;;;;;7.97;5.68;;;;;;;;;;5037991;28;20107;-80
2023/07/07 03:51:35;;;;;;;8.90;5.60;;;;;;;;;;5052245;28;20487;-80
2023/07/07 03:54:02;;;;;;;8.82;5.60;;;;;;;;;;5041284;28;20037;-80
2023/07/07 03:56:27;;;;;;;9.45;5.40;;;;;;;;;;5039187;28;20048;-79
2023/07/07 03:58:53;;;;;;;8.55;5.55;;;;;;;;;;5039210;28;20396;-81
2023/07/07 04:01:18;;;;;;;7.97;5.03;;;;;;;;;;5042614;28;20064;-81
2023/07/07 04:03:45;;;;;;;10.30;5.10;;;;;;;;;;5036525;28;20033;-80
2023/07/07 04:06:13;;;;;;;10.15;5.45;;;;;;;;;;5051351;28;20043;-80
2023/07/07 04:08:38;;;;;;;8.35;5.30;;;;;;;;;;5049282;28;20369;-81
2023/07/07 04:11:05;;;;;;;8.52;5.38;;;;;;;;;;5043087;28;20152;-79
2023/07/07 04:13:34;;;;;;;8.17;4.87;;;;;;;;;;5038263;28;20539;-80
2023/07/07 04:16:01;;;;;;;11.25;5.22;;;;;;;;;;5042934;28;20515;-81
2023/07/07 04:18:27;;;;;;;8.50;5.05;;;;;;;;;;5034598;28;20482;-80
2023/07/07 04:20:52;;;;;;;7.80;5.13;;;;;;;;;;5033143;28;20037;-81
2023/07/07 04:23:17;;;;;;;7.57;4.70;;;;;;;;;;5050795;28;20040;-82
2023/07/07 04:25:46;;;;;;;9.88;5.15;;;;;;;;;;5039463;28;20048;-81
2023/07/07 04:28:11;;;;;;;9.88;5.10;;;;;;;;;;5067462;28;20144;-80
2023/07/07 04:30:40;;;;;;;7.55;5.07;;;;;;;;;;5043328;28;21261;-79
2023/07/07 04:33:06;;;;;;;7.28;5.15;;;;;;;;;;5040908;28;20033;-79
2023/07/07 04:35:35;;;;;;;12.60;4.97;;;;;;;;;;5028661;28;20040;-81
2023/07/07 04:38:03;;;;;;;7.57;5.53;;;;;;;;;;5059247;28;20548;-81
2023/07/07 04:40:31;;;;;;;;;;;;;;;;;;5050748;28;20040;-81
2023/07/07 04:43:06;;;;;;;9.40;5.22;;;;;;;;;;5030227;28;19983;-79
2023/07/07 04:45:35;;;;;;;8.70;5.00;;;;;;;;;;5041085;28;20407;-82
2023/07/07 04:48:00;;;;;;;10.40;5.63;;;;;;;;;;5038199;28;20040;-85
2023/07/07 04:50:26;;;;;;;7.78;5.13;;;;;;;;;;5048832;28;20044;-80
2023/07/07 04:52:51;;;;;;;7.18;4.85;;;;;;;;;;5051895;28;20094;-81
2023/07/07 04:55:16;;;;;;;8.80;5.10;;;;;;;;;;5028861;28;20032;-81
2023/07/07 04:57:42;;;;;;;7.45;4.53;;;;;;;;;;5042500;28;20131;-80
2023/07/07 05:00:08;;;;;;;8.27;5.18;;;;;;;;;;5054518;28;20059;-81
2023/07/07 05:02:35;;;;;;;8.48;4.75;;;;;;;;;;5053509;28;20087;-81
2023/07/07 05:05:01;;;;;;;7.40;4.68;;;;;;;;;;5047118;28;20446;-81
2023/07/07 05:07:28;;;;;;;7.90;4.65;;;;;;;;;;5047160;28;20515;-81
2023/07/07 05:09:54;;;;;;;9.50;4.53;;;;;;;;;;5053566;28;20033;-82
2023/07/07 05:12:20;;;;;;;8.07;4.57;;;;;;;;;;5041441;28;20723;-79
2023/07/07 05:14:45;;;;;;;6.35;3.47;;;;;;;;;;5042376;28;20044;-84
2023/07/07 05:17:10;;;;;;;8.82;4.65;;;;;;;;;;5039408;28;20094;-82
2023/07/07 05:19:36;;;;;;;6.07;3.80;;;;;;;;;;5056509;28;20067;-81
2023/07/07 05:22:01;;;;;;;6.85;3.53;;;;;;;;;;5045506;28;20040;-80
2023/07/07 05:24:27;;;;;;;6.55;3.40;;;;;;;;;;5047173;28;20033;-84
2023/07/07 05:26:53;;;;;;;6.13;3.15;;;;;;;;;;5024014;28;20037;-80
2023/07/07 05:29:20;;;;;;;5.43;2.80;;;;;;;;;;5042210;28;20036;-81
2023/07/07 05:31:45;;;;;;;7.18;3.38;;;;;;;;;;5068861;28;20386;-80
2023/07/07 05:34:11;;;;;;;5.63;2.83;;;;;;;;;;5039807;28;20140;-80
2023/07/07 05:36:37;;;;;;;5.07;2.30;;;;;;;;;;5043063;28;20032;-81
2023/07/07 05:39:06;;;;;;;5.18;2.70;;;;;;;;;;5055884;28;20094;-81
2023/07/07 05:41:32;;;;;;;7.00;2.80;;;;;;;;;;5027881;28;20063;-83
2023/07/07 05:43:57;;;;;;;8.18;2.75;;;;;;;;;;5045544;28;20408;-82
2023/07/07 05:46:26;;;;;;;5.30;2.45;;;;;;;;;;5044539;28;20044;-84
2023/07/07 05:48:52;;;;;;;4.45;2.20;;;;;;;;;;5052904;28;20021;-82
2023/07/07 05:51:19;;;;;;;7.63;2.25;;;;;;;;;;5072024;28;20036;-82
2023/07/07 05:53:47;;;;;;;4.70;2.15;;;;;;;;;;5046662;28;20032;-81
2023/07/07 05:56:22;;;;;;;4.88;1.83;;;;;;;;;;5054106;28;20520;-82
2023/07/07 05:58:50;;;;;;;6.35;1.60;;;;;;;;;;5053132;28;20106;-82
2023/07/07 06:01:15;;;;;;;5.25;1.90;;;;;;;;;;5037691;28;20028;-83
2023/07/07 06:03:41;;;;;;;5.60;1.73;;;;;;;;;;5054549;28;20044;-82
2023/07/07 06:06:12;;;;;;;4.35;1.80;;;;;;;;;;5028165;28;20032;-83
2023/07/07 06:08:39;;;;;;;5.78;1.83;;;;;;;;;;5023221;28;20088;-81
2023/07/07 06:11:06;;;;;;;3.08;1.70;;;;;;;;;;5014991;28;20481;-81
2023/07/07 06:13:32;;;;;;;3.53;1.75;;;;;;;;;;5035454;28;20029;-82
2023/07/07 06:15:58;;;;;;;4.22;1.33;;;;;;;;;;5054454;28;20476;-82
2023/07/07 06:18:23;;;;;;;6.97;1.67;;;;;;;;;;5026915;28;20079;-81
2023/07/07 06:20:56;;;;;;;2.53;1.20;;;;;;;;;;5018678;28;20045;-83
2023/07/07 06:23:21;;;;;;;3.55;1.42;;;;;;;;;;5041193;28;20029;-81
2023/07/07 06:25:50;;;;;;;4.53;1.42;;;;;;;;;;5047789;28;20461;-80
2023/07/07 06:28:16;;;;;;;4.72;1.40;;;;;;;;;;5031017;28;20124;-81
2023/07/07 06:30:42;;;;;;;3.65;1.25;;;;;;;;;;5049449;28;20443;-80
2023/07/07 06:33:07;;;;;;;3.80;1.40;;;;;;;;;;5044250;28;20029;-82
2023/07/07 06:35:33;;;;;;;3.75;1.48;;;;;;;;;;5054226;28;20033;-80
2023/07/07 06:37:58;;;;;;;3.22;1.50;;;;;;;;;;5061962;28;20041;-82
2023/07/07 06:40:24;;;;;;;3.28;1.60;;;;;;;;;;5037526;28;20044;-81
2023/07/07 06:42:58;;;;;;;3.58;1.45;;;;;;;;;;5032903;28;20043;-80
2023/07/07 06:45:23;;;;;;;4.50;1.50;;;;;;;;;;5041958;28;20048;-80
2023/07/07 06:47:49;;;;;;;4.10;1.40;;;;;;;;;;5045076;28;20411;-80
2023/07/07 06:50:29;;;;;;;3.10;1.33;;;;;;;;;;5053247;28;20032;-80
2023/07/07 06:52:54;;;;;;;4.60;1.50;;;;;;;;;;5046841;28;20043;-81
2023/07/07 06:55:25;;;;;;;4.82;1.35;;;;;;;;;;5047456;28;20511;-80
2023/07/07 06:57:51;;;;;;;4.28;1.30;;;;;;;;;;5056662;28;20091;-81
2023/07/07 07:00:17;;;;;;;3.30;1.27;;;;;;;;;;5038182;28;20052;-81
2023/07/07 07:02:43;;;;;;;3.25;1.20;;;;;;;;;;5037702;28;20033;-81
2023/07/07 07:05:09;;;;;;;4.55;1.27;;;;;;;;;;5044107;28;20195;-80
2023/07/07 07:07:40;;;;;;;3.05;1.35;;;;;;;;;;5055769;28;20119;-81
2023/07/07 07:10:05;;;;;;;3.65;1.30;;;;;;;;;;5040591;28;20032;-81
2023/07/07 07:12:32;;;;;;;4.05;1.30;;;;;;;;;;5057060;28;20434;-81
2023/07/07 07:14:57;;;;;;;3.97;1.70;;;;;;;;;;5045251;28;20044;-81
2023/07/07 07:17:24;;;;;;;3.50;1.48;;;;;;;;;;5045885;28;20412;-81
2023/07/07 07:19:52;;;;;;;3.15;1.23;;;;;;;;;;5036374;28;20036;-82
2023/07/07 07:22:18;;;;;;;4.10;1.33;;;;;;;;;;5034459;28;20072;-82
2023/07/07 07:24:44;;;;;;;3.22;1.33;;;;;;;;;;5042836;28;20488;-81
2023/07/07 07:27:09;;;;;;;3.65;1.20;;;;;;;;;;5032937;28;20048;-81
2023/07/07 07:29:35;;;;;;;2.53;1.20;;;;;;;;;;5053310;28;20086;-81
2023/07/07 07:32:00;;;;;;;3.22;1.25;;;;;;;;;;5054598;28;20032;-81
2023/07/07 07:34:28;;;;;;;3.72;1.23;;;;;;;;;;5045721;28;20033;-81
2023/07/07 07:36:55;;;;;;;3.85;1.40;;;;;;;;;;5042577;28;20496;-82
2023/07/07 07:39:21;;;;;;;;;;;;;;;;;;5050631;28;20121;-81
2023/07/07 07:41:49;;;;;;;3.97;1.20;;;;;;;;;;5054128;28;20042;-81
2023/07/07 07:44:15;;;;;;;3.60;1.10;;;;;;;;;;5041447;28;20040;-79
2023/07/07 07:46:42;;;;;;;4.10;1.10;;;;;;;;;;5052573;28;20029;-80
2023/07/07 07:49:07;;;;;;;3.77;1.17;;;;;;;;;;5043755;28;20033;-80
2023/07/07 07:51:41;;;;;;;3.55;1.20;;;;;;;;;;5039334;28;20270;-79
2023/07/07 07:54:10;;;;;;;2.65;1.20;;;;;;;;;;5036646;28;20541;-79
2023/07/07 07:56:36;;;;;;;2.90;1.30;;;;;;;;;;5044344;28;20097;-80
2023/07/07 07:59:02;;;;;;;4.18;1.13;;;;;;;;;;5053078;28;20445;-81
2023/07/07 08:01:27;;;;;;;7.10;1.50;;;;;;;;;;5037170;28;20029;-80
2023/07/07 08:03:53;;;;;;;3.17;1.23;;;;;;;;;;5035596;28;20055;-80
2023/07/07 08:06:19;;;;;;;5.50;1.20;;;;;;;;;;5053376;28;20032;-81
2023/07/07 08:08:44;;;;;;;2.60;1.02;;;;;;;;;;5053452;28;20423;-81
2023/07/07 08:11:13;;;;;;;4.90;1.10;;;;;;;;;;5051347;28;20033;-80
2023/07/07 08:13:38;;;;;;;4.50;1.20;;;;;;;;;;5038550;28;20045;-81
2023/07/07 08:16:04;;;;;;;2.92;1.00;;;;;;;;;;5039752;28;20542;-81
2023/07/07 08:18:29;;;;;;;2.50;0.98;;;;;;;;;;5031676;28;20063;-82
2023/07/07 08:20:55;;;;;;;2.85;1.10;;;;;;;;;;5054806;28;20032;-82
2023/07/07 08:23:20;;;;;;;5.18;1.00;;;;;;;;;;5038228;28;20033;-82
2023/07/07 08:25:46;;;;;;;6.55;1.10;;;;;;;;;;5052412;28;20508;-81
2023/07/07 08:28:11;;;;;;;2.75;1.00;;;;;;;;;;5053424;28;20029;-81
2023/07/07 08:30:37;;;;;;;3.08;1.02;;;;;;;;;;5043526;28;20044;-82
2023/07/07 08:33:03;;;;;;;1.77;0.80;;;;;;;;;;5039699;28;20044;-82
2023/07/07 08:35:28;;;;;;;2.97;0.80;;;;;;;;;;5048794;28;20063;-84
2023/07/07 08:37:57;;;;;;;2.60;1.10;;;;;;;;;;5035556;28;20028;-82
2023/07/07 08:40:24;;;;;;;2.53;0.88;;;;;;;;;;5042439;28;20045;-82
2023/07/07 08:42:50;;;;;;;3.22;1.00;;;;;;;;;;5048434;28;20032;-83
2023/07/07 08:45:19;;;;;;;16.30;1.27;;;;;;;;;;5057309;28;20048;-83
2023/07/07 08:47:52;;;;;;;3.00;0.85;;;;;;;;;;5054483;28;20032;-82
2023/07/07 08:50:32;;;;;;;2.13;0.82;;;;;;;;;;5047086;28;20119;-82
2023/07/07 08:53:16;;;;;;;2.15;0.80;;;;;;;;;;5056282;28;20040;-81
2023/07/07 08:55:50;;;;;;;3.95;0.98;;;;;;;;;;5055412;28;20520;-82
2023/07/07 08:58:37;;;;;;;2.22;0.70;;;;;;;;;;5056518;28;20491;-83
2023/07/07 09:01:06;;;;;;;;;;;;;;;;;;5042153;28;20044;-82
2023/07/07 09:03:56;;;;;;;2.03;0.65;;;;;;;;;;5040303;28;19948;-82
2023/07/07 09:06:22;;;;;;;2.42;0.80;;;;;;;;;;5060756;28;20078;-81
2023/07/07 09:09:07;;;;;;;1.67;0.75;;;;;;;;;;5050599;28;20036;-81
2023/07/07 09:11:54;;;;;;;2.73;0.60;;;;;;;;;;5031954;28;20033;-81
2023/07/07 09:14:21;;;;;;;3.17;0.60;;;;;;;;;;5058648;28;20125;-82
2023/07/07 09:16:47;;;;;;;2.10;0.80;;;;;;;;;;5053529;28;20040;-82
2023/07/07 09:19:39;;;;;;;2.03;0.50;;;;;;;;;;5059904;28;20025;-83
2023/07/07 09:22:24;;;;;;;2.20;0.70;;;;;;;;;;5028071;28;20034;-83
2023/07/07 09:25:19;;;;;;;1.63;0.50;;;;;;;;;;5038983;28;20041;-82
2023/07/07 09:27:50;;;;;;;1.77;0.63;;;;;;;;;;5045748;28;20484;-84
2023/07/07 09:30:50;;;;;;;2.08;0.60;;;;;;;;;;5073763;28;20260;-83
2023/07/07 09:33:18;;;;;;;1.95;0.70;;;;;;;;;;5056133;28;20040;-81
2023/07/07 09:36:26;;;;;;;2.10;0.75;;;;;;;;;;5053178;28;20052;-82
2023/07/07 09:38:58;;;;;;;1.42;0.50;;;;;;;;;;5029482;28;20055;-82
2023/07/07 09:41:29;;;;;;;1.77;0.70;;;;;;;;;;5049908;28;20502;-83
2023/07/07 09:44:15;;;;;;;2.60;0.77;;;;;;;;;;5039616;28;20053;-82
2023/07/07 09:46:56;;;;;;;3.55;0.70;;;;;;;;;;5062335;28;20082;-82
2023/07/07 09:49:42;;;;;;;2.10;0.70;;;;;;;;;;5051212;28;20037;-81
2023/07/07 09:52:29;;;;;;;1.50;0.68;;;;;;;;;;5060118;28;20025;-82
2023/07/07 09:54:58;;;;;;;3.10;0.90;;;;;;;;;;5056819;28;20040;-82
2023/07/07 09:57:35;;;;;;;2.78;0.73;;;;;;;;;;5035820;28;20147;-82
2023/07/07 10:00:01;;;;;;;2.03;0.80;;;;;;;;;;5047671;28;20669;-82
2023/07/07 10:02:30;;;;;;;2.72;0.88;;;;;;;;;;5051795;28;20029;-82
2023/07/07 10:05:06;;;;;;;2.97;0.70;;;;;;;;;;5063386;28;20520;-82
2023/07/07 10:07:38;;;;;;;1.98;0.70;;;;;;;;;;5042412;28;20484;-81
2023/07/07 10:10:04;;;;;;;1.58;0.60;;;;;;;;;;5045469;28;20104;-81
2023/07/07 10:12:30;;;;;;;2.88;0.85;;;;;;;;;;5052946;28;20369;-81
2023/07/07 10:14:56;;;;;;;2.00;0.70;;;;;;;;;;5031071;28;20110;-83
2023/07/07 10:17:36;;;;;;;1.43;0.60;;;;;;;;;;5043306;28;20033;-81
2023/07/07 10:20:05;;;;;;;3.47;0.82;;;;;;;;;;5061786;28;20045;-82
2023/07/07 10:22:34;;;;;;;1.58;0.65;;;;;;;;;;5053140;28;20044;-83
2023/07/07 10:25:01;;;;;;;1.85;0.70;;;;;;;;;;5039606;28;20060;-81
2023/07/07 10:27:27;;;;;;;1.52;0.70;;;;;;;;;;5046928;28;20037;-81
2023/07/07 10:29:56;;;;;;;2.60;0.77;;;;;;;;;;5040486;28;20048;-81
2023/07/07 10:32:23;;;;;;;2.90;0.98;;;;;;;;;;5044526;28;20104;-82
2023/07/07 10:34:52;;;;;;;1.85;0.60;;;;;;;;;;5055215;28;20068;-82
2023/07/07 10:37:27;;;;;;;2.33;0.70;;;;;;;;;;5052403;28;20025;-82
2023/07/07 10:39:57;;;;;;;4.82;0.80;;;;;;;;;;5050791;28;20182;-81
2023/07/07 10:42:24;;;;;;;1.85;0.70;;;;;;;;;;5041132;28;20044;-82
2023/07/07 10:44:53;;;;;;;2.47;0.63;;;;;;;;;;5046198;28;20954;-81
2023/07/07 10:47:30;;;;;;;1.52;0.63;;;;;;;;;;5050891;28;20039;-82
2023/07/07 10:49:57;;;;;;;3.03;0.75;;;;;;;;;;5058714;28;20592;-82
2023/07/07 10:52:42;;;;;;;2.47;0.80;;;;;;;;;;5056315;28;20542;-83
2023/07/07 10:55:29;;;;;;;2.10;0.70;;;;;;;;;;5046096;28;20033;-82
2023/07/07 10:58:10;;;;;;;3.47;0.80;;;;;;;;;;5053758;28;20051;-81
2023/07/07 11:00:42;;;;;;;1.85;0.70;;;;;;;;;;5057616;28;20549;-81
2023/07/07 11:03:13;;;;;;;2.10;0.70;;;;;;;;;;5053967;28;20045;-80
2023/07/07 11:05:44;;;;;;;1.90;0.60;;;;;;;;;;5039372;28;20047;-81
2023/07/07 11:08:26;;;;;;;2.13;0.80;;;;;;;;;;5041775;28;20041;-82
2023/07/07 11:11:13;;;;;;;2.22;0.70;;;;;;;;;;5018441;28;20056;-81
2023/07/07 11:14:07;;;;;;;3.28;0.77;;;;;;;;;;5046147;28;20037;-81
2023/07/07 11:16:52;;;;;;;1.63;0.70;;;;;;;;;;5038217;28;20041;-82
2023/07/07 11:19:35;;;;;;;5.60;0.70;;;;;;;;;;5039776;28;20033;-82
2023/07/07 11:22:03;;;;;;;1.80;0.52;;;;;;;;;;5060640;28;20036;-81
2023/07/07 11:24:33;;;;;;;1.58;0.70;;;;;;;;;;5048966;28;20123;-84
2023/07/07 11:26:58;;;;;;;3.20;0.70;;;;;;;;;;5024821;28;20045;-82
2023/07/07 11:29:42;;;;;;;1.77;0.70;;;;;;;;;;5035689;28;20485;-81
2023/07/07 11:32:20;;;;;;;2.60;0.70;;;;;;;;;;5051788;28;20082;-82
2023/07/07 11:35:01;;;;;;;2.30;0.73;;;;;;;;;;5049583;28;20040;-82
2023/07/07 11:37:32;;;;;;;1.95;0.63;;;;;;;;;;5063700;28;20045;-81
2023/07/07 11:40:12;;;;;;;2.63;0.80;;;;;;;;;;5029341;28;20045;-82
2023/07/07 11:42:59;;;;;;;1.65;0.60;;;;;;;;;;5038278;28;20497;-82
2023/07/07 11:45:36;;;;;;;1.75;0.60;;;;;;;;;;5039161;28;20037;-81
2023/07/07 11:48:52;;;;;;;2.13;0.60;;;;;;;;;;5046847;28;20411;-82
2023/07/07 11:51:41;;;;;;;1.60;0.70;;;;;;;;;;5048229;28;20029;-82
2023/07/07 11:54:35;;;;;;;2.92;0.80;;;;;;;;;;5031271;28;20057;-80
2023/07/07 11:57:31;;;;;;;3.30;0.80;;;;;;;;;;5031563;28;20488;-79
2023/07/07 12:00:14;;;;;;;2.45;0.82;;;;;;;;;;5036081;28;20067;-80
2023/07/07 12:03:24;;;;;;;1.88;0.80;;;;;;;;;;5034279;28;20563;-80
2023/07/07 12:05:50;;;;;;;2.05;0.80;;;;;;;;;;5038329;28;20041;-81
2023/07/07 12:08:29;;;;;;;3.33;0.90;;;;;;;;;;5011248;28;20552;-79
2023/07/07 12:10:56;;;;;;;2.33;0.85;;;;;;;;;;5016445;28;20033;-79
2023/07/07 12:13:56;;;;;;;2.60;1.00;;;;;;;;;;5023389;28;20033;-82
2023/07/07 12:16:23;;;;;;;4.50;1.10;;;;;;;;;;5024530;28;20106;-81
2023/07/07 12:19:02;;;;;;;3.28;0.90;;;;;;;;;;5016191;28;20098;-80
2023/07/07 12:21:32;;;;;;;2.30;1.10;;;;;;;;;;5016999;28;20423;-81
2023/07/07 12:23:58;;;;;;;1.80;0.80;;;;;;;;;;5023641;28;20033;-81
2023/07/07 12:26:28;;;;;;;;;;;;;;;;;;5047082;28;20061;-80
2023/07/07 12:28:55;;;;;;;2.00;0.80;;;;;;;;;;5025656;28;20318;-80
2023/07/07 12:31:21;;;;;;;2.00;0.93;;;;;;;;;;5023503;28;20363;-81
2023/07/07 12:33:51;;;;;;;2.47;0.90;;;;;;;;;;5030191;28;20041;-81
2023/07/07 12:36:17;;;;;;;3.50;0.90;;;;;;;;;;5033416;28;20796;-81
2023/07/07 12:38:48;;;;;;;4.95;1.10;;;;;;;;;;5025351;28;20041;-81
2023/07/07 12:41:17;;;;;;;5.15;1.25;;;;;;;;;;5025034;28;20034;-80
2023/07/07 12:43:44;;;;;;;3.17;1.20;;;;;;;;;;5025884;28;20029;-80
2023/07/07 12:46:17;;;;;;;;;;;;;;;;;;5030712;28;20509;-81
2023/07/07 12:48:45;;;;;;;2.17;1.00;;;;;;;;;;5033839;28;20144;-82
2023/07/07 12:51:12;;;;;;;3.88;1.13;;;;;;;;;;5029465;28;20120;-82
2023/07/07 12:53:44;;;;;;;3.10;1.10;;;;;;;;;;5023069;28;20733;-81
2023/07/07 12:56:09;;;;;;;2.92;1.20;;;;;;;;;;5044604;28;20028;-81
2023/07/07 12:58:43;;;;;;;2.65;1.10;;;;;;;;;;5054698;28;20366;-81
2023/07/07 13:01:14;;;;;;;2.60;0.90;;;;;;;;;;5042747;28;20037;-81
2023/07/07 13:03:59;;;;;;;2.58;1.20;;;;;;;;;;5057704;28;20122;-80
2023/07/07 13:06:36;;;;;;;2.95;1.10;;;;;;;;;;5067754;28;20036;-80
2023/07/07 13:09:13;;;;;;;4.43;1.17;;;;;;;;;;5035451;28;20041;-81
2023/07/07 13:11:40;;;;;;;;;;;;;;;;;;5057746;28;20467;-79
2023/07/07 13:14:28;;;;;;;3.05;1.23;;;;;;;;;;5051180;28;19916;-80
2023/07/07 13:16:58;;;;;;;2.80;1.10;;;;;;;;;;5055125;28;20059;-80
2023/07/07 13:19:23;;;;;;;4.25;1.40;;;;;;;;;;5056823;28;20518;-81
2023/07/07 13:21:49;;;;;;;2.33;1.10;;;;;;;;;;5053660;28;20143;-83
2023/07/07 13:24:17;;;;;;;2.72;1.20;;;;;;;;;;5047059;28;20431;-83
2023/07/07 13:26:43;;;;;;;2.60;1.05;;;;;;;;;;5043240;28;20476;-80
2023/07/07 13:29:08;;;;;;;3.50;1.10;;;;;;;;;;5041451;28;20040;-81
2023/07/07 13:31:38;;;;;;;2.08;1.00;;;;;;;;;;5056673;28;20087;-82
2023/07/07 13:34:06;;;;;;;4.28;1.10;;;;;;;;;;5063888;28;20036;-81
2023/07/07 13:36:32;;;;;;;2.35;1.05;;;;;;;;;;5063298;28;20511;-81
2023/07/07 13:38:57;;;;;;;2.27;0.80;;;;;;;;;;5051458;28;20037;-82
2023/07/07 13:41:23;;;;;;;3.30;1.10;;;;;;;;;;5044879;28;20516;-82
2023/07/07 13:43:51;;;;;;;2.60;0.90;;;;;;;;;;5035579;28;20174;-82
2023/07/07 13:46:21;;;;;;;2.33;0.95;;;;;;;;;;5056422;28;20681;-82
2023/07/07 13:48:52;;;;;;;3.67;1.05;;;;;;;;;;5072655;28;20070;-82
2023/07/07 13:51:36;;;;;;;3.03;0.77;;;;;;;;;;5039833;28;20040;-82
2023/07/07 13:54:03;;;;;;;1.77;0.82;;;;;;;;;;5052895;28;20094;-82
2023/07/07 13:56:29;;;;;;;2.97;0.90;;;;;;;;;;5044798;28;20098;-82
2023/07/07 13:58:58;;;;;;;3.88;0.93;;;;;;;;;;5053256;28;20044;-81
2023/07/07 14:01:24;;;;;;;2.70;1.00;;;;;;;;;;5047085;28;20039;-82
2023/07/07 14:03:51;;;;;;;2.90;1.00;;;;;;;;;;5054148;28;20044;-82
2023/07/07 14:06:17;;;;;;;5.43;1.00;;;;;;;;;;5054294;28;20498;-82
2023/07/07 14:08:43;;;;;;;4.37;1.00;;;;;;;;;;5046134;28;20060;-83
2023/07/07 14:11:23;;;;;;;3.58;1.10;;;;;;;;;;5054486;28;20388;-82
2023/07/07 14:13:55;;;;;;;2.05;0.90;;;;;;;;;;5073125;28;20032;-82
2023/07/07 14:16:25;;;;;;;2.72;1.10;;;;;;;;;;5059357;28;20106;-82
2023/07/07 14:18:58;;;;;;;3.03;1.10;;;;;;;;;;5068723;28;20480;-82
2023/07/07 14:21:24;;;;;;;3.95;1.40;;;;;;;;;;5065330;28;20503;-82
2023/07/07 14:23:52;;;;;;;4.70;1.03;;;;;;;;;;5058271;28;20041;-82
2023/07/07 14:26:25;;;;;;;3.13;1.00;;;;;;;;;;5053871;28;20025;-82
2023/07/07 14:28:55;;;;;;;1.83;0.80;;;;;;;;;;5043425;28;20079;-82
2023/07/07 14:31:20;;;;;;;2.47;1.10;;;;;;;;;;5055959;28;20435;-82
2023/07/07 14:33:54;;;;;;;4.63;1.10;;;;;;;;;;5054545;28;20040;-81
2023/07/07 14:36:27;;;;;;;3.35;1.20;;;;;;;;;;5048329;28;20029;-82
2023/07/07 14:39:03;;;;;;;2.85;1.23;;;;;;;;;;5055858;28;20492;-81
2023/07/07 14:41:35;;;;;;;2.85;1.10;;;;;;;;;;5053086;28;20392;-82
2023/07/07 14:44:00;;;;;;;6.25;1.50;;;;;;;;;;5068784;28;20094;-82
2023/07/07 14:46:33;;;;;;;2.40;1.17;;;;;;;;;;5053084;28;20447;-82
2023/07/07 14:49:17;;;;;;;4.20;1.05;;;;;;;;;;5031706;28;20036;-81
2023/07/07 14:51:46;;;;;;;3.42;1.38;;;;;;;;;;5045309;28;20504;-82
2023/07/07 14:54:16;;;;;;;3.22;1.30;;;;;;;;;;5050043;28;20035;-81
2023/07/07 14:56:53;;;;;;;2.42;1.15;;;;;;;;;;5042583;28;20041;-82
2023/07/07 14:59:31;;;;;;;3.97;1.27;;;;;;;;;;5027871;28;20140;-82
2023/07/07 15:01:59;;;;;;;4.85;1.38;;;;;;;;;;5051710;28;20072;-82
2023/07/07 15:04:51;;;;;;;4.07;1.15;;;;;;;;;;5033962;28;20120;-82